createdAt,value
2023-04-21T00:02:39.523Z,96520.22
2023-04-21T00:07:35.306Z,96514.28
2023-04-21T00:12:28.656Z,96509.06
2023-04-21T00:17:21.911Z,96503.88
2023-04-21T00:22:15.431Z,96509.63
2023-04-21T00:27:11.493Z,96500.25
2023-04-21T00:32:08.426Z,96479.25
2023-04-21T00:37:01.754Z,96469.50
2023-04-21T00:41:55.187Z,96455.66
2023-04-21T00:46:50.078Z,96450.81
2023-04-21T00:51:43.626Z,96470.50
2023-04-21T00:56:37.624Z,96481.97
2023-04-21T01:01:36.597Z,96473.13
2023-04-21T01:06:33.131Z,96477.69
2023-04-21T01:11:26.787Z,96470.81
2023-04-21T01:16:21.297Z,96470.78
2023-04-21T01:21:14.881Z,96472.78
2023-04-21T01:26:09.765Z,96481.56
2023-04-21T01:31:03.513Z,96482.94
2023-04-21T01:49:00.918Z,96488.44
2023-04-21T01:53:54.338Z,96488.53
2023-04-21T01:58:47.692Z,96485.13
2023-04-21T02:03:41.171Z,96491.28
2023-04-21T02:08:36.137Z,96478.22
2023-04-21T02:13:29.521Z,96483.50
2023-04-21T02:18:23.046Z,96485.81
2023-04-21T02:23:16.404Z,96468.44
2023-04-21T02:28:11.176Z,96455.16
2023-04-21T02:33:04.655Z,96463.41
2023-04-21T02:37:58.030Z,96463.53
2023-04-21T02:42:51.430Z,96455.94
2023-04-21T02:47:46.179Z,96462.16
2023-04-21T02:52:39.669Z,96474.56
2023-04-21T02:57:33.031Z,96483.19
2023-04-21T03:02:26.554Z,96474.31
2023-04-21T03:07:21.546Z,96483.25
2023-04-21T03:12:14.995Z,96481.84
2023-04-21T03:17:08.383Z,96485.13
2023-04-21T03:22:01.804Z,96476.91
2023-04-21T03:26:57.051Z,96469.72
2023-04-21T03:31:50.562Z,96466.25
2023-04-21T03:36:44.000Z,96461.56
2023-04-21T03:41:37.611Z,96455.94
2023-04-21T03:46:32.556Z,96444.91
2023-04-21T03:51:27.415Z,96443.59
2023-04-21T03:56:20.880Z,96450.28
2023-04-21T04:01:14.251Z,96462.03
2023-04-21T04:06:12.324Z,96462.41
2023-04-21T04:11:05.843Z,96450.47
2023-04-21T04:15:59.813Z,96444.66
2023-04-21T04:20:53.178Z,96442.28
2023-04-21T04:25:48.857Z,96437.38
2023-04-21T04:30:42.785Z,96430.69
2023-04-21T04:35:36.118Z,96418.50
2023-04-21T04:40:30.530Z,96419.63
2023-04-21T04:45:26.306Z,96412.88
2023-04-21T04:50:20.069Z,96417.97
2023-04-21T04:55:13.942Z,96439.13
2023-04-21T05:00:11.513Z,96443.19
2023-04-21T05:05:08.637Z,96437.78
2023-04-21T05:10:04.286Z,96447.78
2023-04-21T05:14:57.767Z,96452.75
2023-04-21T05:19:51.447Z,96438.63
2023-04-21T05:24:46.201Z,96440.47
2023-04-21T05:29:39.590Z,96445.06
2023-04-21T05:34:32.866Z,96445.91
2023-04-21T05:39:26.438Z,96438.19
2023-04-21T05:44:21.335Z,96453.19
2023-04-21T05:49:14.957Z,96455.72
2023-04-21T05:54:08.288Z,96450.09
2023-04-21T05:59:01.666Z,96453.94
2023-04-21T06:03:56.642Z,96453.84
2023-04-21T06:13:58.773Z,96458.63
2023-04-21T06:18:52.172Z,96459.06
2023-04-21T06:23:46.998Z,96455.50
2023-04-21T06:28:40.335Z,96456.94
2023-04-21T06:33:34.233Z,96458.50
2023-04-21T06:38:27.714Z,96451.84
2023-04-21T06:43:22.597Z,96449.13
2023-04-21T06:48:16.039Z,96462.94
2023-04-21T06:53:12.239Z,96471.47
2023-04-21T06:58:05.644Z,96476.16
2023-04-21T07:18:21.323Z,96455.50
2023-04-21T07:23:14.690Z,96462.56
2023-04-21T07:28:08.122Z,96486.44
2023-04-21T07:33:01.793Z,96483.63
2023-04-21T07:37:56.939Z,96489.63
2023-04-21T07:42:50.330Z,96493.16
2023-04-21T07:47:43.722Z,96490.41
2023-04-21T07:52:37.327Z,96497.78
2023-04-21T07:57:34.629Z,96507.41
2023-04-21T08:02:28.294Z,96501.22
2023-04-21T08:07:23.012Z,96505.78
2023-04-21T08:12:16.471Z,96508.97
2023-04-21T08:17:11.325Z,96517.19
2023-04-21T08:42:37.037Z,96502.22
2023-04-21T08:47:31.488Z,96498.78
2023-04-21T08:52:25.281Z,96496.53
2023-04-21T08:57:23.543Z,96503.53
2023-04-21T09:02:20.427Z,96501.00
2023-04-21T09:07:32.201Z,96511.50
2023-04-21T09:12:26.270Z,96504.34
2023-04-21T09:17:28.978Z,96500.34
2023-04-21T09:22:28.266Z,96498.13
2023-04-21T09:27:23.284Z,96492.59
2023-04-21T09:32:21.954Z,96487.47
2023-04-21T09:37:21.527Z,96487.72
2023-04-21T09:42:17.265Z,96487.41
2023-04-21T09:47:14.404Z,96491.34
2023-04-21T09:52:18.997Z,96490.50
2023-04-21T09:58:24.814Z,96478.00
2023-04-21T10:03:33.565Z,96484.53
2023-04-21T10:08:31.803Z,96476.53
2023-04-21T10:13:25.946Z,96463.50
2023-04-21T10:18:35.273Z,96470.94
2023-04-21T10:23:32.825Z,96465.38
2023-04-21T10:28:51.379Z,96452.22
2023-04-21T10:34:05.149Z,96449.34
2023-04-21T10:39:06.271Z,96444.34
2023-04-21T10:44:00.805Z,96434.03
2023-04-21T10:48:54.641Z,96432.44
2023-04-21T10:53:50.628Z,96442.56
2023-04-21T10:58:47.888Z,96444.59
2023-04-21T11:03:44.994Z,96434.97
2023-04-21T11:08:56.907Z,96414.34
2023-04-21T11:13:55.730Z,96408.41
2023-04-21T11:18:49.848Z,96421.97
2023-04-21T11:23:50.028Z,96412.44
2023-04-21T11:28:49.609Z,96408.34
2023-04-21T11:33:44.483Z,96408.16
2023-04-21T11:38:42.701Z,96401.97
2023-04-21T11:49:56.556Z,96398.13
2023-04-21T11:54:57.851Z,96394.31
2023-04-21T11:59:51.354Z,96374.81
2023-04-21T12:05:04.378Z,96386.75
2023-04-21T12:09:58.225Z,96383.47
2023-04-21T12:14:53.113Z,96379.53
2023-04-21T12:19:46.691Z,96398.59
2023-04-21T12:24:47.287Z,96399.56
2023-04-21T12:29:45.933Z,96391.13
2023-04-21T12:34:39.289Z,96389.19
2023-04-21T12:39:32.898Z,96399.34
2023-04-21T12:44:27.773Z,96397.91
2023-04-21T12:49:21.427Z,96397.09
2023-04-21T12:54:15.491Z,96400.72
2023-04-21T12:59:09.986Z,96394.44
2023-04-21T13:04:05.662Z,96393.63
2023-04-21T13:09:02.372Z,96390.34
2023-04-21T13:13:59.005Z,96380.03
2023-04-21T13:18:52.333Z,96379.09
2023-04-21T13:23:52.717Z,96377.22
2023-04-21T13:28:46.424Z,96390.78
2023-04-21T13:33:39.932Z,96390.16
2023-04-21T13:38:42.714Z,96393.94
2023-04-21T13:43:37.587Z,96396.25
2023-04-21T13:48:30.925Z,96380.56
2023-04-21T13:53:24.368Z,96374.44
2023-04-21T13:58:21.128Z,96366.66
2023-04-21T14:03:19.410Z,96358.72
2023-04-21T14:08:15.102Z,96366.75
2023-04-21T14:13:15.081Z,96380.28
2023-04-21T14:18:18.660Z,96383.84
2023-04-21T14:23:13.897Z,96369.75
2023-04-21T14:28:10.502Z,96365.75
2023-04-21T14:33:04.289Z,96366.44
2023-04-21T14:37:59.764Z,96359.66
2023-04-21T14:42:53.212Z,96376.34
2023-04-21T14:47:46.666Z,96363.59
2023-04-21T14:52:40.097Z,96363.72
2023-04-21T14:57:35.867Z,96350.78
2023-04-21T15:02:29.967Z,96351.53
2023-04-21T15:07:24.994Z,96340.75
2023-04-21T15:12:18.671Z,96344.84
2023-04-21T15:17:13.716Z,96335.13
2023-04-21T15:22:07.311Z,96352.72
2023-04-21T15:27:01.399Z,96344.53
2023-04-21T15:31:54.704Z,96344.13
2023-04-21T15:36:52.144Z,96349.53
2023-04-21T15:41:45.564Z,96362.63
2023-04-21T15:46:39.048Z,96346.72
2023-04-21T15:51:35.756Z,96350.19
2023-04-21T15:56:30.498Z,96344.41
2023-04-21T16:01:24.015Z,96335.78
2023-04-21T16:06:18.750Z,96346.53
2023-04-21T16:11:12.265Z,96339.38
2023-04-21T16:16:08.846Z,96343.53
2023-04-21T16:21:02.578Z,96335.69
2023-04-21T16:26:11.090Z,96342.59
2023-04-21T16:31:04.528Z,96344.69
2023-04-21T16:35:59.367Z,96352.44
2023-04-21T16:40:52.685Z,96338.03
2023-04-21T16:45:46.172Z,96342.91
2023-04-21T16:50:39.795Z,96358.13
2023-04-21T16:55:34.787Z,96353.97
2023-04-21T17:00:30.106Z,96351.78
2023-04-21T17:05:24.120Z,96361.34
2023-04-21T17:10:19.674Z,96356.47
2023-04-21T17:15:17.025Z,96344.63
2023-04-21T17:20:12.584Z,96338.53
2023-04-21T17:25:06.838Z,96331.91
2023-04-21T17:30:00.332Z,96330.69
2023-04-21T17:34:57.560Z,96328.38
2023-04-21T17:39:53.707Z,96329.25
2023-04-21T17:44:51.838Z,96331.34
2023-04-21T17:49:58.150Z,96323.75
2023-04-21T17:54:53.033Z,96320.19
2023-04-21T17:59:46.524Z,96315.91
2023-04-21T18:04:40.032Z,96322.72
2023-04-21T18:09:33.750Z,96316.06
2023-04-21T18:14:30.522Z,96320.94
2023-04-21T18:19:23.910Z,96319.56
2023-04-21T18:24:17.327Z,96311.97
2023-04-21T18:29:10.772Z,96310.88
2023-04-21T18:34:06.080Z,96311.03
2023-04-21T18:38:59.460Z,96312.28
2023-04-21T18:43:52.798Z,96311.63
2023-04-21T18:48:46.215Z,96311.63
2023-04-21T18:53:42.527Z,96331.72
2023-04-21T18:58:35.830Z,96327.47
2023-04-21T19:03:29.360Z,96334.69
2023-04-21T19:08:38.244Z,96338.41
2023-04-21T19:13:36.555Z,96333.44
2023-04-21T19:18:29.868Z,96339.44
2023-04-21T19:23:23.279Z,96348.59
2023-04-21T19:28:16.681Z,96343.31
2023-04-21T19:33:13.126Z,96345.41
2023-04-21T19:38:29.262Z,96347.19
2023-04-21T19:44:03.027Z,96354.41
2023-04-21T19:54:37.030Z,96356.78
2023-04-21T20:00:11.580Z,96354.00
2023-04-21T20:05:42.767Z,96357.88
2023-04-21T20:16:17.794Z,96364.09
2023-04-21T20:21:17.706Z,96368.38
2023-04-21T20:27:09.529Z,96352.19
2023-04-21T20:32:47.834Z,96364.22
2023-04-21T20:38:00.878Z,96366.69
2023-04-21T20:43:03.030Z,96358.94
2023-04-21T20:47:59.309Z,96363.34
2023-04-21T20:53:04.600Z,96373.84
2023-04-21T20:58:02.682Z,96374.25
2023-04-21T21:02:56.205Z,96384.44
2023-04-21T21:07:49.682Z,96373.16
2023-04-21T21:12:44.356Z,96382.97
2023-04-21T21:17:39.386Z,96380.22
2023-04-21T21:22:32.722Z,96379.38
2023-04-21T21:27:26.219Z,96389.50
2023-04-21T21:32:20.998Z,96391.41
2023-04-21T21:37:14.352Z,96396.81
2023-04-21T21:42:07.683Z,96392.09
2023-04-21T21:47:01.459Z,96386.13
2023-04-21T21:51:56.685Z,96397.59
2023-04-21T21:56:50.453Z,96388.47
2023-04-21T22:01:43.993Z,96389.13
2023-04-21T22:06:38.255Z,96377.50
2023-04-21T22:11:33.171Z,96388.94
2023-04-21T22:16:26.603Z,96390.19
2023-04-21T22:21:20.545Z,96384.66
2023-04-21T22:26:13.894Z,96379.59
2023-04-21T22:31:08.853Z,96391.97
2023-04-21T22:36:02.388Z,96389.22
2023-04-21T22:40:55.741Z,96381.97
2023-04-21T22:45:49.197Z,96382.50
2023-04-21T22:50:44.878Z,96383.75
2023-04-21T22:55:38.402Z,96384.13
2023-04-21T23:00:31.770Z,96383.41
2023-04-21T23:05:25.063Z,96381.47
2023-04-21T23:10:19.947Z,96370.44
2023-04-21T23:15:13.472Z,96368.25
2023-04-21T23:20:09.673Z,96376.91
2023-04-21T23:25:03.144Z,96371.94
2023-04-21T23:29:59.555Z,96373.84
2023-04-21T23:34:53.407Z,96379.59
2023-04-21T23:39:46.839Z,96376.41
2023-04-21T23:44:40.466Z,96376.09
2023-04-21T23:49:35.280Z,96373.75
2023-04-21T23:54:31.766Z,96376.63
2023-04-21T23:59:27.751Z,96370.41
